Hillsdale, Michigan
Current Conditions -  °F | °C
As of 7:15 AM on Monday 22 Dec 2014 (Local Time) from KJYM Reporting Station
Haze Haze  
Wind Chill: -9°   Ceiling: Unl
Heat Index: -4°   Visibility: 5mi
Dew Point: -5°   Wind: 9mph
Humidity: 92%   Direction: 110°ESE
Pressure: 30.03"   Gusts: NA
Location:  41.92°N, 84.63°W
Report Text: KJYM 221215Z AUTO 11008KT 5SM BR CLR M04/M05 A3003 RMK AO2 T10381049
Loading
Personal Weather Stations






























Interactive Weather Map New forecast layout! Learn more

10-Day Weather Forecast

Advertisements
Track Severe Weather on mobile